Olga, WA (98279)

10:54 AM PDT on May 29, 2015 (GMT -0700)
West Slope Mount Constitution - Orcas Island | | Change Station
CLOSE
Current Station
Personal Weather Station
Location: Eastsound, WA
Elevation: 1033 ft
Nearby Weather Stations

Elev 1033 ft 48.67 °N, 122.87 °W | Updated 3 minutes ago

Partly Cloudy
Partly Cloudy
63.7 °F
Feels Like 63.7 °F
N
0.0
Wind Variable Wind from NNW
Gusts 5.0 mph

Today
High -- | Low -- °F
--% Chance of Precip.
Yesterday
High -- | Low -- °F
Precip. -- in
5:15 AM 9:02 PM
Waxing Gibbous, 85% visible
Pressure 29.96 in
Visibility 10.0 miles
Clouds Clear
Dew Point 55 °F
Humidity 73%
Rainfall 0.00 in
Snow Depth Not available.
UV 7 out of 12
Pollen 8.30 out of 12
Air Quality Not available.
Flu Activity Sporadic
METAR KORS 291735Z AUTO 36005KT 10SM CLR 17/12 A2996 RMK AO2

More Conditions Fewer Conditions

Pressure 29.96 in
Visibility 10.0 miles
Clouds Clear
Dew Point 55 °F
Humidity 73%
Rainfall 0.00 in
Snow Depth Not available.
UV 7 out of 12
Pollen 8.30 out of 12
Air Quality Not available.
Flu Activity Sporadic
METAR KORS 291735Z AUTO 36005KT 10SM CLR 17/12 A2996 RMK AO2

More Conditions Fewer Conditions

10-Day Weather Forecast

Almanac

Astronomy

May. 29, 2015 Rise Set
Actual Time
Civil Twilight
Nautical Twilight
Astronomical Twilight
Moon
Length of Visible Light
Length of Day
Tomorrow will be .
, % of the Moon is Illuminated

Today's Extremes

State Highs State Lows

Community

WunderPhotos

Upload Photos

1,825,306 photos uploaded!

WunderBlogs® & News

Nearby

Air Quality

  Air Quality AQ Index Pollutant
Not available.

Snow Depth

Station Depth Elevation

Earthquake Activity

City Distance Mag. Time & Date
Minimum magnitude displayed is 2.5.

Coastal Water Temperatures

Place Temperature

Stations

Nearby Weather Stations

Station Location Temp. Windchill Dew Point Humidity Wind Precip. Elev Updated Type